createdAt,value
2023-01-25T00:01:52.889Z,14.33
2023-01-25T00:04:20.317Z,14.33
2023-01-25T00:06:47.651Z,14.34
2023-01-25T00:09:14.544Z,14.36
2023-01-25T00:11:41.705Z,14.37
2023-01-25T00:14:09.940Z,14.39
2023-01-25T00:16:37.450Z,14.40
2023-01-25T00:19:05.018Z,14.40
2023-01-25T00:21:31.620Z,14.40
2023-01-25T00:23:58.260Z,14.41
2023-01-25T00:26:24.913Z,14.41
2023-01-25T00:28:53.219Z,14.40
2023-01-25T00:31:33.443Z,14.39
2023-01-25T00:34:21.972Z,14.40
2023-01-25T00:36:50.490Z,14.39
2023-01-25T00:39:17.139Z,14.38
2023-01-25T00:41:44.396Z,14.38
2023-01-25T00:44:10.967Z,14.37
2023-01-25T00:46:37.561Z,14.36
2023-01-25T00:49:04.133Z,14.36
2023-01-25T00:51:30.697Z,14.34
2023-01-25T00:53:57.258Z,14.34
2023-01-25T00:56:23.959Z,14.34
2023-01-25T00:58:50.598Z,14.33
2023-01-25T01:01:17.207Z,14.31
2023-01-25T01:03:43.808Z,14.31
2023-01-25T01:06:12.109Z,14.31
2023-01-25T01:08:40.517Z,14.32
2023-01-25T01:11:10.319Z,14.33
2023-01-25T01:13:37.330Z,14.34
2023-01-25T01:16:08.471Z,14.34
2023-01-25T01:18:36.256Z,14.34
2023-01-25T01:21:02.993Z,14.37
2023-01-25T01:23:30.222Z,14.37
2023-01-25T01:26:00.125Z,14.38
2023-01-25T01:28:29.648Z,14.38
2023-01-25T01:31:02.983Z,14.39
2023-01-25T01:33:29.769Z,14.40
2023-01-25T01:35:56.534Z,14.40
2023-01-25T01:38:23.381Z,14.40
2023-01-25T01:40:50.846Z,14.39
2023-01-25T01:43:21.243Z,14.40
2023-01-25T01:45:47.900Z,14.40
2023-01-25T01:48:28.966Z,14.39
2023-01-25T01:50:59.594Z,14.38
2023-01-25T01:53:26.559Z,14.38
2023-01-25T01:55:56.130Z,14.38
2023-01-25T01:58:23.001Z,14.38
2023-01-25T02:00:49.634Z,14.38
2023-01-25T02:03:17.009Z,14.38
2023-01-25T02:06:04.189Z,14.37
2023-01-25T02:08:33.583Z,14.37
2023-01-25T02:11:00.923Z,14.36
2023-01-25T02:13:27.830Z,14.36
2023-01-25T02:15:56.529Z,14.35
2023-01-25T02:18:24.693Z,14.36
2023-01-25T02:20:53.347Z,14.36
2023-01-25T02:23:31.823Z,14.36
2023-01-25T02:26:00.917Z,14.35
2023-01-25T02:28:47.203Z,14.36
2023-01-25T02:31:14.017Z,14.38
2023-01-25T02:33:40.622Z,14.40
2023-01-25T02:36:07.177Z,14.40
2023-01-25T02:38:42.581Z,14.39
2023-01-25T02:41:14.118Z,14.40
2023-01-25T02:43:40.710Z,14.42
2023-01-25T02:46:23.241Z,14.40
2023-01-25T02:48:49.984Z,14.40
2023-01-25T02:51:16.676Z,14.40
2023-01-25T02:53:43.291Z,14.41
2023-01-25T02:56:10.028Z,14.40
2023-01-25T02:58:36.642Z,14.39
2023-01-25T03:01:03.354Z,14.39
2023-01-25T03:03:30.103Z,14.39
2023-01-25T03:05:56.663Z,14.39
2023-01-25T03:08:23.310Z,14.38
2023-01-25T03:10:49.916Z,14.38
2023-01-25T03:13:16.492Z,14.35
2023-01-25T03:15:43.128Z,14.35
2023-01-25T03:18:09.859Z,14.34
2023-01-25T03:20:36.422Z,14.36
2023-01-25T03:23:02.970Z,14.34
2023-01-25T03:25:29.590Z,14.34
2023-01-25T03:27:56.357Z,14.33
2023-01-25T03:30:22.914Z,14.34
2023-01-25T03:32:50.721Z,14.35
2023-01-25T03:35:17.326Z,14.35
2023-01-25T03:37:45.871Z,14.35
2023-01-25T03:40:12.648Z,14.36
2023-01-25T03:42:39.255Z,14.37
2023-01-25T03:45:06.333Z,14.37
2023-01-25T03:47:32.961Z,14.38
2023-01-25T03:49:59.519Z,14.40
2023-01-25T03:52:27.379Z,14.40
2023-01-25T03:54:53.962Z,14.41
2023-01-25T03:57:20.502Z,14.42
2023-01-25T03:59:47.114Z,14.42
2023-01-25T04:02:14.728Z,14.42
2023-01-25T04:04:41.356Z,14.41
2023-01-25T04:07:07.924Z,14.42
2023-01-25T04:09:34.507Z,14.42
2023-01-25T04:12:01.089Z,14.41
2023-01-25T04:14:43.408Z,14.41
2023-01-25T04:17:10.917Z,14.40
2023-01-25T04:19:37.662Z,14.40
2023-01-25T04:22:04.248Z,14.39
2023-01-25T04:24:30.881Z,14.38
2023-01-25T04:26:57.485Z,14.38
2023-01-25T04:29:35.469Z,14.37
2023-01-25T04:32:07.024Z,14.36
2023-01-25T04:34:33.748Z,14.36
2023-01-25T04:37:00.299Z,14.35
2023-01-25T04:39:26.882Z,14.34
2023-01-25T04:41:53.454Z,14.35
2023-01-25T04:44:20.032Z,14.35
2023-01-25T04:46:46.611Z,14.35
2023-01-25T04:49:13.188Z,14.36
2023-01-25T04:51:39.747Z,14.36
2023-01-25T04:54:06.358Z,14.37
2023-01-25T04:56:33.085Z,14.39
2023-01-25T04:58:59.646Z,14.38
2023-01-25T05:01:26.324Z,14.40
2023-01-25T05:03:52.932Z,14.40
2023-01-25T05:06:19.533Z,14.39
2023-01-25T05:08:46.170Z,14.41
2023-01-25T05:11:12.729Z,14.41
2023-01-25T05:13:39.287Z,14.41
2023-01-25T05:16:07.740Z,14.41
2023-01-25T05:18:47.535Z,14.41
2023-01-25T05:21:35.095Z,14.41
2023-01-25T05:24:01.727Z,14.39
2023-01-25T05:26:47.471Z,14.40
2023-01-25T05:29:14.066Z,14.38
2023-01-25T05:31:40.750Z,14.39
2023-01-25T05:34:09.155Z,14.38
2023-01-25T05:36:35.731Z,14.38
2023-01-25T05:39:02.329Z,14.37
2023-01-25T05:41:30.714Z,14.37
2023-01-25T05:43:57.261Z,14.36
2023-01-25T05:46:23.902Z,14.35
2023-01-25T05:48:50.656Z,14.35
2023-01-25T05:51:17.201Z,14.34
2023-01-25T05:53:43.798Z,14.36
2023-01-25T05:56:10.797Z,14.36
2023-01-25T05:58:38.521Z,14.37
2023-01-25T06:01:06.977Z,14.38
2023-01-25T06:03:33.929Z,14.38
2023-01-25T06:06:02.833Z,14.39
2023-01-25T06:08:30.623Z,14.39
2023-01-25T06:10:57.702Z,14.41
2023-01-25T06:13:24.638Z,14.42
2023-01-25T06:15:55.882Z,14.43
2023-01-25T06:18:24.501Z,14.42
2023-01-25T06:20:51.348Z,14.43
2023-01-25T06:23:18.145Z,14.43
2023-01-25T06:25:44.739Z,14.42
2023-01-25T06:28:11.321Z,14.43
2023-01-25T06:30:37.929Z,14.42
2023-01-25T06:33:04.522Z,14.43
2023-01-25T06:35:34.354Z,14.41
2023-01-25T06:38:01.072Z,14.42
2023-01-25T06:40:28.521Z,14.42
2023-01-25T06:42:55.088Z,14.40
2023-01-25T06:45:21.628Z,14.40
2023-01-25T06:47:52.089Z,14.39
2023-01-25T06:50:18.831Z,14.39
2023-01-25T06:52:52.442Z,14.37
2023-01-25T06:55:19.208Z,14.35
2023-01-25T06:57:45.798Z,14.36
2023-01-25T07:00:13.088Z,14.35
2023-01-25T07:02:39.794Z,14.35
2023-01-25T07:05:07.138Z,14.34
2023-01-25T07:07:34.051Z,14.34
2023-01-25T07:10:01.944Z,14.34
2023-01-25T07:12:29.115Z,14.34
2023-01-25T07:14:55.707Z,14.35
2023-01-25T07:17:22.325Z,14.34
2023-01-25T07:19:48.900Z,14.36
2023-01-25T07:22:15.751Z,14.35
2023-01-25T07:24:43.278Z,14.35
2023-01-25T07:27:09.870Z,14.36
2023-01-25T07:29:36.530Z,14.37
2023-01-25T07:32:03.174Z,14.38
2023-01-25T07:34:29.748Z,14.36
2023-01-25T07:36:56.309Z,14.39
2023-01-25T07:39:23.116Z,14.39
2023-01-25T07:41:49.708Z,14.39
2023-01-25T07:44:16.301Z,14.40
2023-01-25T07:46:42.900Z,14.40
2023-01-25T07:49:09.478Z,14.40
2023-01-25T07:51:36.071Z,14.40
2023-01-25T07:54:04.656Z,14.39
2023-01-25T07:56:33.551Z,14.38
2023-01-25T07:59:02.887Z,14.38
2023-01-25T08:01:32.136Z,14.38
2023-01-25T08:03:58.867Z,14.38
2023-01-25T08:06:31.138Z,14.37
2023-01-25T08:08:58.962Z,14.37
2023-01-25T08:11:29.647Z,14.36
2023-01-25T08:13:56.497Z,14.35
2023-01-25T08:16:25.889Z,14.33
2023-01-25T08:18:57.300Z,14.33
2023-01-25T08:21:29.976Z,14.33
2023-01-25T08:24:00.951Z,14.35
2023-01-25T08:26:28.117Z,14.35
2023-01-25T08:28:55.302Z,14.36
2023-01-25T08:31:24.405Z,14.38
2023-01-25T08:33:51.362Z,14.38
2023-01-25T08:36:18.916Z,14.39
2023-01-25T08:38:47.263Z,14.39
2023-01-25T08:41:16.286Z,14.41
2023-01-25T08:43:43.767Z,14.40
2023-01-25T08:46:11.127Z,14.42
2023-01-25T08:48:38.042Z,14.41
2023-01-25T08:51:04.897Z,14.41
2023-01-25T08:53:32.054Z,14.42
2023-01-25T08:56:09.649Z,14.41
2023-01-25T08:58:41.700Z,14.42
2023-01-25T09:01:10.250Z,14.41
2023-01-25T09:03:38.795Z,14.40
2023-01-25T09:06:05.772Z,14.40
2023-01-25T09:08:33.098Z,14.40
2023-01-25T09:11:10.729Z,14.39
2023-01-25T09:13:37.347Z,14.39
2023-01-25T09:16:08.307Z,14.39
2023-01-25T09:18:36.932Z,14.37
2023-01-25T09:21:11.365Z,14.37
2023-01-25T09:23:50.636Z,14.37
2023-01-25T09:26:18.218Z,14.35
2023-01-25T09:28:49.549Z,14.36
2023-01-25T09:31:22.070Z,14.35
2023-01-25T09:33:51.587Z,14.34
2023-01-25T09:36:18.364Z,14.36
2023-01-25T09:38:45.922Z,14.36
2023-01-25T09:41:46.429Z,14.38
2023-01-25T09:44:31.928Z,14.38
2023-01-25T09:47:00.447Z,14.39
2023-01-25T09:49:53.518Z,14.40
2023-01-25T09:52:38.530Z,14.43
2023-01-25T09:55:14.093Z,14.42
2023-01-25T09:57:42.228Z,14.42
2023-01-25T10:00:15.732Z,14.43
2023-01-25T10:02:57.077Z,14.42
2023-01-25T10:05:27.364Z,14.43
2023-01-25T10:08:18.034Z,14.43
2023-01-25T10:10:45.353Z,14.42
2023-01-25T10:13:14.658Z,14.43
2023-01-25T10:15:44.725Z,14.40
2023-01-25T10:18:16.867Z,14.40
2023-01-25T10:21:04.801Z,14.39
2023-01-25T10:23:34.344Z,14.40
2023-01-25T10:26:05.162Z,14.39
2023-01-25T10:28:39.970Z,14.39
2023-01-25T10:31:20.861Z,14.38
2023-01-25T10:33:48.734Z,14.37
2023-01-25T10:36:17.161Z,14.36
2023-01-25T10:38:46.231Z,14.37
2023-01-25T10:41:28.918Z,14.35
2023-01-25T10:44:18.788Z,14.35
2023-01-25T10:47:00.627Z,14.34
2023-01-25T10:49:35.781Z,14.34
2023-01-25T10:52:37.791Z,14.36
2023-01-25T10:55:23.469Z,14.38
2023-01-25T10:57:52.162Z,14.38
2023-01-25T11:00:38.770Z,14.38
2023-01-25T11:03:05.967Z,14.39
2023-01-25T11:05:35.040Z,14.41
2023-01-25T11:08:30.774Z,14.41
2023-01-25T11:10:58.297Z,14.41
2023-01-25T11:13:34.820Z,14.39
2023-01-25T11:16:07.191Z,14.39
2023-01-25T11:18:35.250Z,14.40
2023-01-25T11:21:14.934Z,14.39
2023-01-25T11:23:41.623Z,14.40
2023-01-25T11:26:19.845Z,14.40
2023-01-25T11:28:49.688Z,14.38
2023-01-25T11:31:22.938Z,14.40
2023-01-25T11:33:49.562Z,14.39
2023-01-25T11:36:41.109Z,14.40
2023-01-25T11:39:33.298Z,14.40
2023-01-25T11:42:12.557Z,14.39
2023-01-25T11:44:57.731Z,14.38
2023-01-25T11:47:33.208Z,14.37
2023-01-25T11:50:25.980Z,14.38
2023-01-25T11:53:47.304Z,14.37
2023-01-25T11:56:24.954Z,14.35
2023-01-25T11:58:54.130Z,14.36
2023-01-25T12:01:38.839Z,14.36
2023-01-25T12:04:17.826Z,14.36
2023-01-25T12:07:03.973Z,14.37
2023-01-25T12:09:42.977Z,14.38
2023-01-25T12:12:46.676Z,14.40
2023-01-25T12:16:04.437Z,14.41
2023-01-25T12:18:33.639Z,14.41
2023-01-25T12:21:26.346Z,14.42
2023-01-25T12:24:33.317Z,14.42
2023-01-25T12:27:38.473Z,14.41
2023-01-25T12:30:19.932Z,14.42
2023-01-25T12:32:59.497Z,14.42
2023-01-25T12:35:41.643Z,14.42
2023-01-25T12:38:34.834Z,14.41
2023-01-25T12:41:13.014Z,14.40
2023-01-25T12:43:48.322Z,14.41
2023-01-25T12:46:21.872Z,14.39
2023-01-25T12:48:51.190Z,14.38
2023-01-25T12:51:18.857Z,14.37
2023-01-25T12:53:49.365Z,14.37
2023-01-25T12:56:45.242Z,14.36
2023-01-25T12:59:18.949Z,14.37
2023-01-25T13:01:55.912Z,14.36
2023-01-25T13:04:47.421Z,14.35
2023-01-25T13:07:30.035Z,14.34
2023-01-25T13:10:01.423Z,14.35
2023-01-25T13:12:28.012Z,14.35
2023-01-25T13:14:54.688Z,14.34
2023-01-25T13:17:38.137Z,14.36
2023-01-25T13:20:56.968Z,14.39
2023-01-25T13:23:29.344Z,14.40
2023-01-25T13:26:15.986Z,14.41
2023-01-25T13:28:47.759Z,14.42
2023-01-25T13:31:51.999Z,14.43
2023-01-25T13:34:40.346Z,14.43
2023-01-25T13:37:24.307Z,14.44
2023-01-25T13:39:54.068Z,14.44
2023-01-25T13:42:28.727Z,14.43
2023-01-25T13:44:58.286Z,14.43
2023-01-25T13:47:37.897Z,14.43
2023-01-25T13:50:23.367Z,14.42
2023-01-25T13:53:00.430Z,14.41
2023-01-25T13:55:27.981Z,14.41
2023-01-25T13:58:09.664Z,14.40
2023-01-25T14:00:36.283Z,14.40
2023-01-25T14:03:05.232Z,14.38
2023-01-25T14:05:31.806Z,14.37
2023-01-25T14:07:58.393Z,14.38
2023-01-25T14:10:27.748Z,14.38
2023-01-25T14:12:59.093Z,14.36
2023-01-25T14:15:28.299Z,14.36
2023-01-25T14:18:15.181Z,14.34
2023-01-25T14:20:42.640Z,14.34
2023-01-25T14:23:23.871Z,14.33
2023-01-25T14:25:51.391Z,14.36
2023-01-25T14:28:18.605Z,14.35
2023-01-25T14:30:51.059Z,14.37
2023-01-25T14:33:29.527Z,14.37
2023-01-25T14:36:15.782Z,14.38
2023-01-25T14:38:43.573Z,14.39
2023-01-25T14:41:16.453Z,14.39
2023-01-25T14:43:46.063Z,14.42
2023-01-25T14:46:39.124Z,14.41
2023-01-25T14:49:26.880Z,14.42
2023-01-25T14:52:03.729Z,14.40
2023-01-25T14:54:36.375Z,14.42
2023-01-25T14:57:05.106Z,14.40
2023-01-25T14:59:42.519Z,14.40
2023-01-25T15:02:17.225Z,14.41
2023-01-25T15:04:55.984Z,14.39
2023-01-25T15:07:52.688Z,14.40
2023-01-25T15:10:27.020Z,14.39
2023-01-25T15:13:14.035Z,14.38
2023-01-25T15:16:01.091Z,14.38
2023-01-25T15:18:48.161Z,14.38
2023-01-25T15:21:19.699Z,14.37
2023-01-25T15:23:47.673Z,14.37
2023-01-25T15:26:15.475Z,14.35
2023-01-25T15:28:42.082Z,14.36
2023-01-25T15:31:15.959Z,14.36
2023-01-25T15:33:42.599Z,14.36
2023-01-25T15:36:09.801Z,14.36
2023-01-25T15:38:36.371Z,14.35
2023-01-25T15:41:03.025Z,14.37
2023-01-25T15:43:29.573Z,14.38
2023-01-25T15:45:57.567Z,14.38
2023-01-25T15:48:38.312Z,14.39
2023-01-25T15:51:04.996Z,14.38
2023-01-25T15:53:31.588Z,14.39
2023-01-25T15:56:19.982Z,14.40
2023-01-25T15:58:55.207Z,14.41
2023-01-25T16:01:23.150Z,14.40
2023-01-25T16:03:49.783Z,14.41
2023-01-25T16:06:31.982Z,14.41
2023-01-25T16:08:59.618Z,14.39
2023-01-25T16:11:26.950Z,14.39
2023-01-25T16:13:53.574Z,14.39
2023-01-25T16:16:24.498Z,14.40
2023-01-25T16:18:51.189Z,14.39
2023-01-25T16:21:17.874Z,14.37
2023-01-25T16:23:44.497Z,14.38
2023-01-25T16:26:17.119Z,14.39
2023-01-25T16:28:43.735Z,14.37
2023-01-25T16:31:30.748Z,14.37
2023-01-25T16:33:59.016Z,14.36
2023-01-25T16:36:25.580Z,14.34
2023-01-25T16:38:52.413Z,14.35
2023-01-25T16:41:19.035Z,14.33
2023-01-25T16:43:47.807Z,14.32
2023-01-25T16:46:19.228Z,14.33
2023-01-25T16:48:47.253Z,14.33
2023-01-25T16:51:21.725Z,14.33
2023-01-25T16:53:49.705Z,14.33
2023-01-25T16:56:21.152Z,14.34
2023-01-25T16:58:48.571Z,14.35
2023-01-25T17:01:17.027Z,14.35
2023-01-25T17:03:44.031Z,14.38
2023-01-25T17:06:27.787Z,14.38
2023-01-25T17:09:02.156Z,14.40
2023-01-25T17:11:31.670Z,14.39
2023-01-25T17:13:59.410Z,14.40
2023-01-25T17:16:28.613Z,14.41
2023-01-25T17:19:03.051Z,14.41
2023-01-25T17:21:29.774Z,14.42
2023-01-25T17:23:57.914Z,14.41
2023-01-25T17:26:25.292Z,14.42
2023-01-25T17:28:52.119Z,14.41
2023-01-25T17:31:23.833Z,14.41
2023-01-25T17:33:50.559Z,14.39
2023-01-25T17:36:17.165Z,14.39
2023-01-25T17:38:43.876Z,14.39
2023-01-25T17:41:12.706Z,14.38
2023-01-25T17:43:39.419Z,14.37
2023-01-25T17:46:23.018Z,14.37
2023-01-25T17:48:49.694Z,14.36
2023-01-25T17:51:16.295Z,14.36
2023-01-25T17:53:42.882Z,14.35
2023-01-25T17:56:10.807Z,14.33
2023-01-25T17:58:38.860Z,14.33
2023-01-25T18:01:28.251Z,14.32
2023-01-25T18:03:55.850Z,14.34
2023-01-25T18:06:25.157Z,14.34
2023-01-25T18:08:54.195Z,14.36
2023-01-25T18:11:23.147Z,14.36
2023-01-25T18:13:51.685Z,14.37
2023-01-25T18:16:21.537Z,14.37
2023-01-25T18:18:48.903Z,14.38
2023-01-25T18:21:24.198Z,14.39
2023-01-25T18:23:53.289Z,14.38
2023-01-25T18:26:25.597Z,14.40
2023-01-25T18:28:59.449Z,14.39
2023-01-25T18:31:26.573Z,14.40
2023-01-25T18:33:53.363Z,14.39
2023-01-25T18:36:20.647Z,14.38
2023-01-25T18:38:47.226Z,14.38
2023-01-25T18:41:13.806Z,14.38
2023-01-25T18:43:40.380Z,14.38
2023-01-25T18:46:06.985Z,14.37
2023-01-25T18:48:33.704Z,14.36
2023-01-25T18:51:04.537Z,14.38
2023-01-25T18:53:32.596Z,14.36
2023-01-25T18:56:19.010Z,14.35
2023-01-25T18:58:45.906Z,14.36
2023-01-25T19:01:20.319Z,14.33
2023-01-25T19:03:48.051Z,14.34
2023-01-25T19:06:15.390Z,14.34
2023-01-25T19:08:44.456Z,14.34
2023-01-25T19:11:14.246Z,14.34
2023-01-25T19:13:42.042Z,14.34
2023-01-25T19:16:13.248Z,14.35
2023-01-25T19:18:46.269Z,14.36
2023-01-25T19:21:18.975Z,14.37
2023-01-25T19:23:46.064Z,14.38
2023-01-25T19:26:15.558Z,14.39
2023-01-25T19:28:42.771Z,14.39
2023-01-25T19:31:15.949Z,14.39
2023-01-25T19:33:43.120Z,14.41
2023-01-25T19:36:15.476Z,14.42
2023-01-25T19:38:42.451Z,14.41
2023-01-25T19:41:17.670Z,14.41
2023-01-25T19:43:44.476Z,14.40
2023-01-25T19:46:18.837Z,14.40
2023-01-25T19:48:49.523Z,14.39
2023-01-25T19:51:17.159Z,14.39
2023-01-25T19:53:46.505Z,14.39
2023-01-25T19:56:16.101Z,14.39
2023-01-25T19:58:44.324Z,14.38
2023-01-25T20:01:22.735Z,14.38
2023-01-25T20:03:50.029Z,14.35
2023-01-25T20:06:18.017Z,14.35
2023-01-25T20:08:46.035Z,14.35
2023-01-25T20:11:23.869Z,14.33
2023-01-25T20:13:52.542Z,14.32
2023-01-25T20:16:19.718Z,14.33
2023-01-25T20:18:47.505Z,14.31
2023-01-25T20:21:16.128Z,14.31
2023-01-25T20:23:44.780Z,14.31
2023-01-25T20:26:13.860Z,14.32
2023-01-25T20:28:41.297Z,14.33
2023-01-25T20:31:21.276Z,14.34
2023-01-25T20:33:48.346Z,14.35
2023-01-25T20:36:15.201Z,14.36
2023-01-25T20:38:41.843Z,14.36
2023-01-25T20:41:10.426Z,14.37
2023-01-25T20:43:37.001Z,14.38
2023-01-25T20:46:03.599Z,14.39
2023-01-25T20:48:36.231Z,14.38
2023-01-25T20:51:09.820Z,14.39
2023-01-25T20:53:36.754Z,14.40
2023-01-25T20:56:03.624Z,14.39
2023-01-25T20:58:30.172Z,14.40
2023-01-25T21:00:56.803Z,14.38
2023-01-25T21:03:23.884Z,14.39
2023-01-25T21:05:57.405Z,14.39
2023-01-25T21:08:25.037Z,14.40
2023-01-25T21:10:56.937Z,14.39
2023-01-25T21:13:23.940Z,14.39
2023-01-25T21:16:15.137Z,14.38
2023-01-25T21:18:46.382Z,14.39
2023-01-25T21:21:17.989Z,14.38
2023-01-25T21:23:46.372Z,14.36
2023-01-25T21:26:15.401Z,14.37
2023-01-25T21:28:42.170Z,14.36
2023-01-25T21:31:10.234Z,14.33
2023-01-25T21:33:37.906Z,14.34
2023-01-25T21:36:08.427Z,14.33
2023-01-25T21:38:36.041Z,14.32
2023-01-25T21:41:04.340Z,14.34
2023-01-25T21:43:50.889Z,14.36
2023-01-25T21:46:25.375Z,14.35
2023-01-25T21:49:12.182Z,14.36
2023-01-25T21:51:46.960Z,14.38
2023-01-25T21:54:17.547Z,14.37
2023-01-25T21:56:44.757Z,14.39
2023-01-25T21:59:11.788Z,14.39
2023-01-25T22:01:38.575Z,14.40
2023-01-25T22:04:05.861Z,14.39
2023-01-25T22:06:33.161Z,14.39
2023-01-25T22:08:59.802Z,14.39
2023-01-25T22:11:27.026Z,14.40
2023-01-25T22:13:54.407Z,14.38
2023-01-25T22:16:24.047Z,14.38
2023-01-25T22:18:50.917Z,14.39
2023-01-25T22:21:23.316Z,14.37
2023-01-25T22:23:50.276Z,14.36
2023-01-25T22:26:21.260Z,14.36
2023-01-25T22:28:52.698Z,14.37
2023-01-25T22:31:21.919Z,14.35
2023-01-25T22:33:49.172Z,14.35
2023-01-25T22:36:17.925Z,14.33
2023-01-25T22:38:44.763Z,14.33
2023-01-25T22:41:32.229Z,14.33
2023-01-25T22:43:58.963Z,14.31
2023-01-25T22:46:27.533Z,14.32
2023-01-25T22:48:54.115Z,14.32
2023-01-25T22:51:26.296Z,14.33
2023-01-25T22:53:53.833Z,14.33
2023-01-25T22:56:22.949Z,14.35
2023-01-25T22:58:49.935Z,14.36
2023-01-25T23:01:24.543Z,14.37
2023-01-25T23:03:51.724Z,14.37
2023-01-25T23:06:40.927Z,14.39
2023-01-25T23:09:07.499Z,14.40
2023-01-25T23:11:37.107Z,14.40
2023-01-25T23:14:24.377Z,14.40
2023-01-25T23:16:50.933Z,14.41
2023-01-25T23:19:17.548Z,14.41
2023-01-25T23:21:44.140Z,14.39
2023-01-25T23:24:10.797Z,14.38
2023-01-25T23:26:38.062Z,14.39
2023-01-25T23:29:10.494Z,14.39
2023-01-25T23:31:37.198Z,14.39
2023-01-25T23:34:05.940Z,14.37
2023-01-25T23:36:35.413Z,14.38
2023-01-25T23:39:02.521Z,14.37
2023-01-25T23:41:30.293Z,14.35
2023-01-25T23:43:57.983Z,14.36
2023-01-25T23:46:24.938Z,14.35
2023-01-25T23:48:51.585Z,14.33
2023-01-25T23:51:18.687Z,14.33
2023-01-25T23:53:45.525Z,14.33
2023-01-25T23:56:18.117Z,14.31
2023-01-25T23:58:44.969Z,14.32
